sensor_id;sensor_type;location;lat;lon;timestamp;pressure;altitude;pressure_sealevel;temperature;humidity
19210;BME280;9738;51.654;14.238;2023-02-19T00:01:29;100322.50;;;7.26;100.00
19210;BME280;9738;51.654;14.238;2023-02-19T00:03:58;100321.75;;;7.24;100.00
19210;BME280;9738;51.654;14.238;2023-02-19T00:06:26;100323.47;;;7.25;100.00
19210;BME280;9738;51.654;14.238;2023-02-19T00:08:52;100321.50;;;7.27;100.00
19210;BME280;9738;51.654;14.238;2023-02-19T00:11:21;100324.31;;;7.26;100.00
19210;BME280;9738;51.654;14.238;2023-02-19T00:13:50;100328.66;;;7.27;100.00
19210;BME280;9738;51.654;14.238;2023-02-19T00:16:21;100330.31;;;7.28;100.00
19210;BME280;9738;51.654;14.238;2023-02-19T00:18:48;100331.16;;;7.28;100.00
19210;BME280;9738;51.654;14.238;2023-02-19T00:21:15;100331.03;;;7.30;100.00
19210;BME280;9738;51.654;14.238;2023-02-19T00:23:41;100326.69;;;7.29;100.00
19210;BME280;9738;51.654;14.238;2023-02-19T00:26:10;100330.19;;;7.29;100.00
19210;BME280;9738;51.654;14.238;2023-02-19T00:28:36;100328.22;;;7.31;100.00
19210;BME280;9738;51.654;14.238;2023-02-19T00:31:04;100333.44;;;7.33;100.00
19210;BME280;9738;51.654;14.238;2023-02-19T00:33:31;100330.78;;;7.33;100.00
19210;BME280;9738;51.654;14.238;2023-02-19T00:36:01;100323.06;;;7.30;100.00
19210;BME280;9738;51.654;14.238;2023-02-19T00:38:27;100315.38;;;7.27;100.00
19210;BME280;9738;51.654;14.238;2023-02-19T00:40:53;100317.88;;;7.28;100.00
19210;BME280;9738;51.654;14.238;2023-02-19T00:43:19;100308.22;;;7.27;100.00
19210;BME280;9738;51.654;14.238;2023-02-19T00:45:45;100311.44;;;7.31;100.00
19210;BME280;9738;51.654;14.238;2023-02-19T00:48:11;100312.44;;;7.30;100.00
19210;BME280;9738;51.654;14.238;2023-02-19T00:50:37;100309.75;;;7.30;100.00
19210;BME280;9738;51.654;14.238;2023-02-19T00:53:03;100313.25;;;7.30;100.00
19210;BME280;9738;51.654;14.238;2023-02-19T00:55:29;100304.44;;;7.30;100.00
19210;BME280;9738;51.654;14.238;2023-02-19T00:57:55;100308.09;;;7.29;100.00
19210;BME280;9738;51.654;14.238;2023-02-19T01:00:21;100301.63;;;7.22;100.00
19210;BME280;9738;51.654;14.238;2023-02-19T01:02:47;100297.28;;;7.21;100.00
19210;BME280;9738;51.654;14.238;2023-02-19T01:05:13;100296.00;;;7.15;100.00
19210;BME280;9738;51.654;14.238;2023-02-19T01:07:38;100293.22;;;7.17;100.00
19210;BME280;9738;51.654;14.238;2023-02-19T01:10:06;100283.56;;;7.16;100.00
19210;BME280;9738;51.654;14.238;2023-02-19T01:12:32;100280.22;;;7.14;100.00
19210;BME280;9738;51.654;14.238;2023-02-19T01:14:57;100282.16;;;7.12;100.00
19210;BME280;9738;51.654;14.238;2023-02-19T01:17:24;100275.28;;;7.09;100.00
19210;BME280;9738;51.654;14.238;2023-02-19T01:19:49;100279.78;;;7.09;100.00
19210;BME280;9738;51.654;14.238;2023-02-19T01:22:15;100274.72;;;7.05;100.00
19210;BME280;9738;51.654;14.238;2023-02-19T01:24:41;100266.75;;;7.05;100.00
19210;BME280;9738;51.654;14.238;2023-02-19T01:27:07;100263.13;;;7.07;100.00
19210;BME280;9738;51.654;14.238;2023-02-19T01:29:33;100256.13;;;7.05;100.00
19210;BME280;9738;51.654;14.238;2023-02-19T01:31:59;100256.25;;;7.04;100.00
19210;BME280;9738;51.654;14.238;2023-02-19T01:34:25;100259.06;;;7.02;100.00
19210;BME280;9738;51.654;14.238;2023-02-19T01:36:54;100251.22;;;7.01;100.00
19210;BME280;9738;51.654;14.238;2023-02-19T01:39:21;100237.22;;;6.99;100.00
19210;BME280;9738;51.654;14.238;2023-02-19T01:41:46;100233.63;;;7.00;100.00
19210;BME280;9738;51.654;14.238;2023-02-19T01:46:40;100229.97;;;7.01;100.00
19210;BME280;9738;51.654;14.238;2023-02-19T01:49:12;100223.84;;;7.00;100.00
19210;BME280;9738;51.654;14.238;2023-02-19T01:51:45;100219.63;;;6.98;100.00
19210;BME280;9738;51.654;14.238;2023-02-19T01:54:14;100217.94;;;6.97;100.00
19210;BME280;9738;51.654;14.238;2023-02-19T01:56:43;100215.44;;;6.95;100.00
19210;BME280;9738;51.654;14.238;2023-02-19T01:59:12;100214.00;;;6.91;100.00
19210;BME280;9738;51.654;14.238;2023-02-19T02:01:38;100205.47;;;6.88;100.00
19210;BME280;9738;51.654;14.238;2023-02-19T02:04:07;100201.97;;;6.87;100.00
19210;BME280;9738;51.654;14.238;2023-02-19T02:06:42;100198.59;;;6.85;100.00
19210;BME280;9738;51.654;14.238;2023-02-19T02:09:10;100203.06;;;6.85;100.00
19210;BME280;9738;51.654;14.238;2023-02-19T02:11:54;100206.13;;;6.80;100.00
19210;BME280;9738;51.654;14.238;2023-02-19T02:14:24;100201.66;;;6.81;100.00
19210;BME280;9738;51.654;14.238;2023-02-19T02:22:36;100196.91;;;6.74;100.00
19210;BME280;9738;51.654;14.238;2023-02-19T02:25:39;100189.78;;;6.75;100.00
19210;BME280;9738;51.654;14.238;2023-02-19T02:28:27;100192.28;;;6.76;100.00
19210;BME280;9738;51.654;14.238;2023-02-19T02:31:09;100192.97;;;6.78;100.00
19210;BME280;9738;51.654;14.238;2023-02-19T02:33:58;100192.84;;;6.80;100.00
19210;BME280;9738;51.654;14.238;2023-02-19T02:36:30;100192.16;;;6.78;100.00
19210;BME280;9738;51.654;14.238;2023-02-19T02:38:58;100179.84;;;6.77;100.00
19210;BME280;9738;51.654;14.238;2023-02-19T02:41:26;100170.91;;;6.78;100.00
19210;BME280;9738;51.654;14.238;2023-02-19T02:43:52;100158.63;;;6.77;100.00
19210;BME280;9738;51.654;14.238;2023-02-19T02:46:23;100155.00;;;6.78;100.00
19210;BME280;9738;51.654;14.238;2023-02-19T02:48:57;100155.69;;;6.80;100.00
19210;BME280;9738;51.654;14.238;2023-02-19T02:51:31;100149.44;;;6.81;100.00
19210;BME280;9738;51.654;14.238;2023-02-19T02:54:31;100146.88;;;6.80;100.00
19210;BME280;9738;51.654;14.238;2023-02-19T02:57:17;100146.19;;;6.77;100.00
19210;BME280;9738;51.654;14.238;2023-02-19T02:59:44;100141.03;;;6.76;100.00
19210;BME280;9738;51.654;14.238;2023-02-19T03:02:19;100142.69;;;6.77;100.00
19210;BME280;9738;51.654;14.238;2023-02-19T03:08:10;100141.03;;;6.76;100.00
19210;BME280;9738;51.654;14.238;2023-02-19T03:10:43;100137.53;;;6.75;100.00
19210;BME280;9738;51.654;14.238;2023-02-19T03:13:15;100135.84;;;6.74;100.00
19210;BME280;9738;51.654;14.238;2023-02-19T03:16:14;100131.50;;;6.73;100.00
19210;BME280;9738;51.654;14.238;2023-02-19T03:19:00;100122.69;;;6.73;100.00
19210;BME280;9738;51.654;14.238;2023-02-19T03:21:51;100113.75;;;6.74;100.00
19210;BME280;9738;51.654;14.238;2023-02-19T03:24:23;100120.03;;;6.73;100.00
19210;BME280;9738;51.654;14.238;2023-02-19T03:27:11;100113.63;;;6.75;100.00
19210;BME280;9738;51.654;14.238;2023-02-19T03:29:39;100104.00;;;6.74;100.00
19210;BME280;9738;51.654;14.238;2023-02-19T03:32:14;100112.66;;;6.76;100.00
19210;BME280;9738;51.654;14.238;2023-02-19T03:34:47;100107.34;;;6.76;100.00
19210;BME280;9738;51.654;14.238;2023-02-19T03:37:30;100123.13;;;6.78;100.00
19210;BME280;9738;51.654;14.238;2023-02-19T03:39:58;100114.34;;;6.77;100.00
19210;BME280;9738;51.654;14.238;2023-02-19T03:42:34;100108.06;;;6.78;100.00
19210;BME280;9738;51.654;14.238;2023-02-19T03:45:28;100110.56;;;6.80;100.00
19210;BME280;9738;51.654;14.238;2023-02-19T03:48:19;100117.81;;;6.78;100.00
19210;BME280;9738;51.654;14.238;2023-02-19T03:51:19;100125.94;;;6.76;100.00
19210;BME280;9738;51.654;14.238;2023-02-19T03:53:54;100115.56;;;6.73;100.00
19210;BME280;9738;51.654;14.238;2023-02-19T03:56:37;100116.53;;;6.72;100.00
19210;BME280;9738;51.654;14.238;2023-02-19T03:59:17;100107.59;;;6.73;100.00
19210;BME280;9738;51.654;14.238;2023-02-19T04:01:57;100104.13;;;6.73;100.00
19210;BME280;9738;51.654;14.238;2023-02-19T04:04:35;100097.97;;;6.72;100.00
19210;BME280;9738;51.654;14.238;2023-02-19T04:07:04;100109.31;;;6.74;100.00
19210;BME280;9738;51.654;14.238;2023-02-19T04:09:35;100085.81;;;6.70;100.00
19210;BME280;9738;51.654;14.238;2023-02-19T04:12:03;100081.50;;;6.69;100.00
19210;BME280;9738;51.654;14.238;2023-02-19T04:14:45;100079.69;;;6.69;100.00
19210;BME280;9738;51.654;14.238;2023-02-19T04:17:22;100092.81;;;6.71;100.00
19210;BME280;9738;51.654;14.238;2023-02-19T04:19:50;100091.81;;;6.72;100.00
19210;BME280;9738;51.654;14.238;2023-02-19T04:22:18;100096.16;;;6.73;100.00
19210;BME280;9738;51.654;14.238;2023-02-19T04:24:48;100117.97;;;6.76;100.00
19210;BME280;9738;51.654;14.238;2023-02-19T04:27:15;100106.38;;;6.77;100.00
19210;BME280;9738;51.654;14.238;2023-02-19T04:29:41;100094.91;;;6.77;100.00
19210;BME280;9738;51.654;14.238;2023-02-19T04:32:11;100088.19;;;6.73;100.00
19210;BME280;9738;51.654;14.238;2023-02-19T04:34:37;100105.78;;;6.74;100.00
19210;BME280;9738;51.654;14.238;2023-02-19T04:37:04;100111.09;;;6.74;100.00
19210;BME280;9738;51.654;14.238;2023-02-19T04:39:30;100119.19;;;6.72;100.00
19210;BME280;9738;51.654;14.238;2023-02-19T04:41:56;100110.53;;;6.70;100.00
19210;BME280;9738;51.654;14.238;2023-02-19T04:44:22;100114.28;;;6.68;100.00
19210;BME280;9738;51.654;14.238;2023-02-19T04:46:48;100109.97;;;6.67;100.00
19210;BME280;9738;51.654;14.238;2023-02-19T04:49:14;100107.44;;;6.65;100.00
19210;BME280;9738;51.654;14.238;2023-02-19T04:51:40;100112.91;;;6.64;100.00
19210;BME280;9738;51.654;14.238;2023-02-19T04:54:06;100114.13;;;6.60;100.00
19210;BME280;9738;51.654;14.238;2023-02-19T04:56:33;100107.69;;;6.53;100.00
19210;BME280;9738;51.654;14.238;2023-02-19T04:58:59;100112.09;;;6.42;100.00
19210;BME280;9738;51.654;14.238;2023-02-19T05:01:25;100111.47;;;6.29;100.00
19210;BME280;9738;51.654;14.238;2023-02-19T05:03:51;100110.75;;;6.17;100.00
19210;BME280;9738;51.654;14.238;2023-02-19T05:06:17;100112.78;;;6.14;100.00
19210;BME280;9738;51.654;14.238;2023-02-19T05:08:43;100121.41;;;6.06;100.00
19210;BME280;9738;51.654;14.238;2023-02-19T05:11:10;100123.75;;;5.88;100.00
19210;BME280;9738;51.654;14.238;2023-02-19T05:13:37;100126.72;;;5.74;100.00
19210;BME280;9738;51.654;14.238;2023-02-19T05:16:05;100127.47;;;5.65;100.00
19210;BME280;9738;51.654;14.238;2023-02-19T05:18:33;100130.41;;;5.62;100.00
19210;BME280;9738;51.654;14.238;2023-02-19T05:20:59;100135.50;;;5.54;100.00
19210;BME280;9738;51.654;14.238;2023-02-19T05:23:26;100135.16;;;5.47;100.00
19210;BME280;9738;51.654;14.238;2023-02-19T05:25:53;100135.75;;;5.51;100.00
19210;BME280;9738;51.654;14.238;2023-02-19T05:28:19;100148.66;;;5.44;100.00
19210;BME280;9738;51.654;14.238;2023-02-19T05:30:50;100138.69;;;5.36;100.00
19210;BME280;9738;51.654;14.238;2023-02-19T05:33:20;100157.59;;;5.32;100.00
19210;BME280;9738;51.654;14.238;2023-02-19T05:35:48;100163.03;;;5.19;100.00
19210;BME280;9738;51.654;14.238;2023-02-19T05:38:15;100153.44;;;5.07;100.00
19210;BME280;9738;51.654;14.238;2023-02-19T05:40:43;100159.97;;;5.03;100.00
19210;BME280;9738;51.654;14.238;2023-02-19T05:43:10;100166.44;;;4.99;100.00
19210;BME280;9738;51.654;14.238;2023-02-19T05:45:36;100164.41;;;4.91;100.00
19210;BME280;9738;51.654;14.238;2023-02-19T05:48:04;100169.72;;;4.91;100.00
19210;BME280;9738;51.654;14.238;2023-02-19T05:50:31;100165.00;;;4.95;100.00
19210;BME280;9738;51.654;14.238;2023-02-19T05:53:01;100161.50;;;4.94;100.00
19210;BME280;9738;51.654;14.238;2023-02-19T05:55:28;100178.22;;;4.95;100.00
19210;BME280;9738;51.654;14.238;2023-02-19T05:57:54;100186.66;;;4.88;100.00
19210;BME280;9738;51.654;14.238;2023-02-19T06:00:20;100197.22;;;4.88;100.00
19210;BME280;9738;51.654;14.238;2023-02-19T06:02:47;100201.69;;;4.88;100.00
19210;BME280;9738;51.654;14.238;2023-02-19T06:05:13;100210.84;;;4.84;100.00
19210;BME280;9738;51.654;14.238;2023-02-19T06:07:39;100213.72;;;4.81;100.00
19210;BME280;9738;51.654;14.238;2023-02-19T06:10:10;100206.03;;;4.78;100.00
19210;BME280;9738;51.654;14.238;2023-02-19T06:12:37;100220.31;;;4.75;100.00
19210;BME280;9738;51.654;14.238;2023-02-19T06:15:04;100218.41;;;4.66;100.00
19210;BME280;9738;51.654;14.238;2023-02-19T06:17:34;100224.41;;;4.46;100.00
19210;BME280;9738;51.654;14.238;2023-02-19T06:20:00;100232.06;;;4.26;100.00
19210;BME280;9738;51.654;14.238;2023-02-19T06:22:26;100243.31;;;4.17;100.00
19210;BME280;9738;51.654;14.238;2023-02-19T06:24:52;100249.03;;;4.11;100.00
19210;BME280;9738;51.654;14.238;2023-02-19T06:27:18;100253.72;;;4.07;100.00
19210;BME280;9738;51.654;14.238;2023-02-19T06:29:44;100261.44;;;3.87;100.00
19210;BME280;9738;51.654;14.238;2023-02-19T06:32:10;100270.25;;;3.74;100.00
19210;BME280;9738;51.654;14.238;2023-02-19T06:34:36;100278.13;;;3.63;100.00
19210;BME280;9738;51.654;14.238;2023-02-19T06:37:02;100279.50;;;3.56;100.00
19210;BME280;9738;51.654;14.238;2023-02-19T06:39:28;100291.13;;;3.53;100.00
19210;BME280;9738;51.654;14.238;2023-02-19T06:41:55;100290.72;;;3.47;100.00
19210;BME280;9738;51.654;14.238;2023-02-19T06:44:21;100291.16;;;3.41;100.00
19210;BME280;9738;51.654;14.238;2023-02-19T06:46:47;100291.00;;;3.31;100.00
19210;BME280;9738;51.654;14.238;2023-02-19T06:49:13;100291.31;;;3.27;100.00
19210;BME280;9738;51.654;14.238;2023-02-19T06:51:40;100294.38;;;3.20;100.00
19210;BME280;9738;51.654;14.238;2023-02-19T06:54:07;100288.81;;;3.12;100.00
19210;BME280;9738;51.654;14.238;2023-02-19T06:56:39;100307.28;;;3.12;100.00
19210;BME280;9738;51.654;14.238;2023-02-19T06:59:08;100303.03;;;3.10;100.00
19210;BME280;9738;51.654;14.238;2023-02-19T07:01:35;100302.19;;;3.09;100.00
19210;BME280;9738;51.654;14.238;2023-02-19T07:04:02;100310.97;;;3.10;100.00
19210;BME280;9738;51.654;14.238;2023-02-19T07:06:29;100317.00;;;3.12;100.00
19210;BME280;9738;51.654;14.238;2023-02-19T07:08:56;100321.19;;;3.14;100.00
19210;BME280;9738;51.654;14.238;2023-02-19T07:11:23;100323.19;;;3.11;100.00
19210;BME280;9738;51.654;14.238;2023-02-19T07:13:58;100328.59;;;3.09;100.00
19210;BME280;9738;51.654;14.238;2023-02-19T07:16:26;100329.44;;;3.10;100.00
19210;BME280;9738;51.654;14.238;2023-02-19T07:18:55;100342.09;;;3.05;100.00
19210;BME280;9738;51.654;14.238;2023-02-19T07:21:21;100349.16;;;3.04;100.00
19210;BME280;9738;51.654;14.238;2023-02-19T07:23:47;100352.66;;;3.05;100.00
19210;BME280;9738;51.654;14.238;2023-02-19T07:26:15;100360.25;;;3.09;100.00
19210;BME280;9738;51.654;14.238;2023-02-19T07:28:45;100371.53;;;3.11;100.00
19210;BME280;9738;51.654;14.238;2023-02-19T07:31:14;100390.00;;;3.11;100.00
19210;BME280;9738;51.654;14.238;2023-02-19T07:33:43;100400.78;;;3.08;100.00
19210;BME280;9738;51.654;14.238;2023-02-19T07:36:10;100403.44;;;3.08;100.00
19210;BME280;9738;51.654;14.238;2023-02-19T07:38:36;100412.19;;;3.09;100.00
19210;BME280;9738;51.654;14.238;2023-02-19T07:41:03;100414.94;;;3.07;100.00
19210;BME280;9738;51.654;14.238;2023-02-19T07:43:32;100429.91;;;3.07;100.00
19210;BME280;9738;51.654;14.238;2023-02-19T07:46:05;100425.38;;;3.09;100.00
19210;BME280;9738;51.654;14.238;2023-02-19T07:48:31;100433.94;;;3.12;100.00
19210;BME280;9738;51.654;14.238;2023-02-19T07:50:59;100436.16;;;3.18;100.00
19210;BME280;9738;51.654;14.238;2023-02-19T07:53:26;100436.06;;;3.20;100.00
19210;BME280;9738;51.654;14.238;2023-02-19T07:55:52;100442.19;;;3.20;100.00
19210;BME280;9738;51.654;14.238;2023-02-19T07:58:18;100451.66;;;3.23;100.00
19210;BME280;9738;51.654;14.238;2023-02-19T08:00:44;100447.22;;;3.23;100.00
19210;BME280;9738;51.654;14.238;2023-02-19T08:03:10;100458.56;;;3.25;100.00
19210;BME280;9738;51.654;14.238;2023-02-19T08:05:38;100459.06;;;3.31;100.00
19210;BME280;9738;51.654;14.238;2023-02-19T08:08:06;100464.16;;;3.34;100.00
19210;BME280;9738;51.654;14.238;2023-02-19T08:10:32;100470.91;;;3.38;100.00
19210;BME280;9738;51.654;14.238;2023-02-19T08:13:17;100463.19;;;3.47;100.00
19210;BME280;9738;51.654;14.238;2023-02-19T08:18:30;100470.16;;;3.48;100.00
19210;BME280;9738;51.654;14.238;2023-02-19T08:20:57;100475.97;;;3.53;100.00
19210;BME280;9738;51.654;14.238;2023-02-19T08:23:24;100464.56;;;3.53;100.00
19210;BME280;9738;51.654;14.238;2023-02-19T08:25:51;100472.28;;;3.56;100.00
19210;BME280;9738;51.654;14.238;2023-02-19T08:28:18;100482.34;;;3.64;100.00
19210;BME280;9738;51.654;14.238;2023-02-19T08:30:45;100491.94;;;3.77;100.00
19210;BME280;9738;51.654;14.238;2023-02-19T08:33:15;100492.25;;;3.86;100.00
19210;BME280;9738;51.654;14.238;2023-02-19T08:35:41;100488.88;;;3.84;100.00
19210;BME280;9738;51.654;14.238;2023-02-19T08:38:08;100500.41;;;3.83;100.00
19210;BME280;9738;51.654;14.238;2023-02-19T08:40:39;100510.00;;;3.84;100.00
19210;BME280;9738;51.654;14.238;2023-02-19T08:43:11;100517.38;;;3.91;100.00
19210;BME280;9738;51.654;14.238;2023-02-19T08:45:39;100529.34;;;3.97;100.00
19210;BME280;9738;51.654;14.238;2023-02-19T08:48:05;100535.34;;;3.99;100.00
19210;BME280;9738;51.654;14.238;2023-02-19T08:50:32;100542.53;;;3.97;100.00
19210;BME280;9738;51.654;14.238;2023-02-19T08:52:59;100548.03;;;3.94;100.00
19210;BME280;9738;51.654;14.238;2023-02-19T08:55:25;100552.59;;;3.92;100.00
19210;BME280;9738;51.654;14.238;2023-02-19T08:57:51;100544.22;;;3.98;100.00
19210;BME280;9738;51.654;14.238;2023-02-19T09:00:17;100553.53;;;4.03;100.00
19210;BME280;9738;51.654;14.238;2023-02-19T09:02:43;100567.38;;;4.07;100.00
19210;BME280;9738;51.654;14.238;2023-02-19T09:05:10;100563.78;;;4.08;100.00
19210;BME280;9738;51.654;14.238;2023-02-19T09:07:37;100567.91;;;4.12;100.00
19210;BME280;9738;51.654;14.238;2023-02-19T09:10:03;100573.94;;;4.01;100.00
19210;BME280;9738;51.654;14.238;2023-02-19T09:12:29;100574.56;;;4.05;100.00
19210;BME280;9738;51.654;14.238;2023-02-19T09:14:56;100578.41;;;4.01;100.00
19210;BME280;9738;51.654;14.238;2023-02-19T09:17:21;100579.31;;;4.00;100.00
19210;BME280;9738;51.654;14.238;2023-02-19T09:19:47;100585.97;;;4.05;100.00
19210;BME280;9738;51.654;14.238;2023-02-19T09:22:14;100600.47;;;4.13;100.00
19210;BME280;9738;51.654;14.238;2023-02-19T09:24:41;100594.97;;;4.16;100.00
19210;BME280;9738;51.654;14.238;2023-02-19T09:27:07;100595.94;;;4.15;100.00
19210;BME280;9738;51.654;14.238;2023-02-19T09:29:34;100601.09;;;4.16;100.00
19210;BME280;9738;51.654;14.238;2023-02-19T09:32:00;100616.44;;;4.24;100.00
19210;BME280;9738;51.654;14.238;2023-02-19T09:34:27;100622.66;;;4.36;100.00
19210;BME280;9738;51.654;14.238;2023-02-19T09:36:54;100619.06;;;4.37;100.00
19210;BME280;9738;51.654;14.238;2023-02-19T09:39:20;100620.66;;;4.39;100.00
19210;BME280;9738;51.654;14.238;2023-02-19T09:41:57;100637.44;;;4.51;100.00
19210;BME280;9738;51.654;14.238;2023-02-19T09:44:28;100637.69;;;4.48;100.00
19210;BME280;9738;51.654;14.238;2023-02-19T09:46:55;100636.06;;;4.45;100.00
19210;BME280;9738;51.654;14.238;2023-02-19T09:49:34;100642.75;;;4.51;100.00
19210;BME280;9738;51.654;14.238;2023-02-19T09:52:13;100644.09;;;4.56;100.00
19210;BME280;9738;51.654;14.238;2023-02-19T09:54:43;100643.16;;;4.57;100.00
19210;BME280;9738;51.654;14.238;2023-02-19T09:57:14;100647.69;;;4.68;100.00
19210;BME280;9738;51.654;14.238;2023-02-19T09:59:44;100653.28;;;4.76;100.00
19210;BME280;9738;51.654;14.238;2023-02-19T10:02:19;100646.69;;;4.95;100.00
19210;BME280;9738;51.654;14.238;2023-02-19T10:04:46;100643.84;;;5.22;100.00
19210;BME280;9738;51.654;14.238;2023-02-19T10:07:15;100641.09;;;5.47;100.00
19210;BME280;9738;51.654;14.238;2023-02-19T10:09:51;100654.94;;;5.51;100.00
19210;BME280;9738;51.654;14.238;2023-02-19T10:12:24;100650.47;;;5.75;100.00
19210;BME280;9738;51.654;14.238;2023-02-19T10:14:52;100660.94;;;5.77;100.00
19210;BME280;9738;51.654;14.238;2023-02-19T10:17:29;100659.25;;;5.76;100.00
19210;BME280;9738;51.654;14.238;2023-02-19T10:19:56;100664.44;;;6.01;100.00
19210;BME280;9738;51.654;14.238;2023-02-19T10:22:23;100673.56;;;5.97;100.00
19210;BME280;9738;51.654;14.238;2023-02-19T10:24:53;100672.19;;;5.80;100.00
19210;BME280;9738;51.654;14.238;2023-02-19T10:27:20;100688.75;;;5.71;100.00
19210;BME280;9738;51.654;14.238;2023-02-19T10:29:48;100686.53;;;5.54;100.00
19210;BME280;9738;51.654;14.238;2023-02-19T10:32:18;100691.19;;;5.50;100.00
19210;BME280;9738;51.654;14.238;2023-02-19T10:37:35;100701.66;;;5.52;100.00
19210;BME280;9738;51.654;14.238;2023-02-19T10:40:18;100704.25;;;5.40;100.00
19210;BME280;9738;51.654;14.238;2023-02-19T10:42:47;100707.84;;;5.39;100.00
19210;BME280;9738;51.654;14.238;2023-02-19T10:45:27;100704.78;;;5.69;100.00
19210;BME280;9738;51.654;14.238;2023-02-19T10:47:55;100721.75;;;5.91;100.00
19210;BME280;9738;51.654;14.238;2023-02-19T10:50:29;100717.63;;;6.11;100.00
19210;BME280;9738;51.654;14.238;2023-02-19T10:52:57;100726.38;;;6.46;100.00
19210;BME280;9738;51.654;14.238;2023-02-19T10:55:30;100730.28;;;6.76;100.00
19210;BME280;9738;51.654;14.238;2023-02-19T10:57:56;100729.91;;;6.92;100.00
19210;BME280;9738;51.654;14.238;2023-02-19T11:00:26;100742.56;;;6.55;100.00
19210;BME280;9738;51.654;14.238;2023-02-19T11:03:18;100752.31;;;6.43;100.00
19210;BME280;9738;51.654;14.238;2023-02-19T11:05:52;100750.56;;;6.19;100.00
19210;BME280;9738;51.654;14.238;2023-02-19T11:08:22;100743.00;;;6.02;100.00
19210;BME280;9738;51.654;14.238;2023-02-19T11:10:49;100758.53;;;5.95;100.00
19210;BME280;9738;51.654;14.238;2023-02-19T11:13:19;100762.91;;;5.84;100.00
19210;BME280;9738;51.654;14.238;2023-02-19T11:15:53;100756.88;;;5.82;100.00
19210;BME280;9738;51.654;14.238;2023-02-19T11:18:32;100767.44;;;5.94;100.00
19210;BME280;9738;51.654;14.238;2023-02-19T11:21:03;100773.72;;;5.93;100.00
19210;BME280;9738;51.654;14.238;2023-02-19T11:23:36;100777.50;;;5.89;100.00
19210;BME280;9738;51.654;14.238;2023-02-19T11:26:20;100782.34;;;5.72;100.00
19210;BME280;9738;51.654;14.238;2023-02-19T11:29:11;100787.50;;;5.62;100.00
19210;BME280;9738;51.654;14.238;2023-02-19T11:31:42;100788.84;;;5.67;100.00
19210;BME280;9738;51.654;14.238;2023-02-19T11:36:40;100786.28;;;5.66;100.00
19210;BME280;9738;51.654;14.238;2023-02-19T11:44:48;100787.09;;;5.55;100.00
19210;BME280;9738;51.654;14.238;2023-02-19T11:50:11;100788.44;;;5.61;100.00
19210;BME280;9738;51.654;14.238;2023-02-19T11:53:02;100803.72;;;5.57;100.00
19210;BME280;9738;51.654;14.238;2023-02-19T11:56:09;100805.63;;;5.55;100.00
19210;BME280;9738;51.654;14.238;2023-02-19T12:04:25;100808.25;;;5.68;100.00
19210;BME280;9738;51.654;14.238;2023-02-19T12:09:46;100813.31;;;6.08;100.00
19210;BME280;9738;51.654;14.238;2023-02-19T12:12:23;100817.91;;;6.41;100.00
19210;BME280;9738;51.654;14.238;2023-02-19T12:20:25;100828.38;;;6.77;100.00
19210;BME280;9738;51.654;14.238;2023-02-19T12:26:12;100824.44;;;6.94;100.00
19210;BME280;9738;51.654;14.238;2023-02-19T12:28:58;100827.06;;;6.83;100.00
19210;BME280;9738;51.654;14.238;2023-02-19T12:36:57;100817.16;;;6.74;74.06
19210;BME280;9738;51.654;14.238;2023-02-19T12:44:59;100808.66;;;7.26;72.50
19210;BME280;9738;51.654;14.238;2023-02-19T12:47:31;100811.91;;;7.30;72.44
19210;BME280;9738;51.654;14.238;2023-02-19T12:50:20;100814.56;;;7.08;71.80
19210;BME280;9738;51.654;14.238;2023-02-19T12:52:56;100811.66;;;7.22;72.30
19210;BME280;9738;51.654;14.238;2023-02-19T12:55:32;100813.22;;;7.36;69.39
19210;BME280;9738;51.654;14.238;2023-02-19T12:58:01;100813.44;;;7.55;69.22
19210;BME280;9738;51.654;14.238;2023-02-19T13:00:43;100823.00;;;7.57;67.81
19210;BME280;9738;51.654;14.238;2023-02-19T13:03:11;100815.16;;;7.45;66.18
19210;BME280;9738;51.654;14.238;2023-02-19T13:05:49;100817.44;;;7.49;65.97
19210;BME280;9738;51.654;14.238;2023-02-19T13:08:33;100822.53;;;7.52;64.43
19210;BME280;9738;51.654;14.238;2023-02-19T13:11:06;100835.56;;;7.55;64.84
19210;BME280;9738;51.654;14.238;2023-02-19T13:13:37;100846.81;;;7.14;64.38
19210;BME280;9738;51.654;14.238;2023-02-19T13:16:13;100849.28;;;6.93;65.65
19210;BME280;9738;51.654;14.238;2023-02-19T13:18:59;100852.63;;;6.73;67.39
19210;BME280;9738;51.654;14.238;2023-02-19T13:21:31;100853.72;;;6.70;68.27
19210;BME280;9738;51.654;14.238;2023-02-19T13:24:29;100868.75;;;6.59;69.80
19210;BME280;9738;51.654;14.238;2023-02-19T13:27:12;100867.97;;;6.45;65.79
19210;BME280;9738;51.654;14.238;2023-02-19T13:35:39;100861.63;;;6.59;66.61
19210;BME280;9738;51.654;14.238;2023-02-19T13:38:10;100854.56;;;6.71;65.92
19210;BME280;9738;51.654;14.238;2023-02-19T13:40:41;100853.00;;;6.80;65.51
19210;BME280;9738;51.654;14.238;2023-02-19T13:43:24;100871.25;;;6.84;65.32
19210;BME280;9738;51.654;14.238;2023-02-19T13:45:57;100873.63;;;6.76;66.05
19210;BME280;9738;51.654;14.238;2023-02-19T13:48:28;100874.31;;;6.56;65.16
19210;BME280;9738;51.654;14.238;2023-02-19T13:58:58;100882.66;;;6.62;66.27
19210;BME280;9738;51.654;14.238;2023-02-19T14:04:24;100875.84;;;6.82;64.44
19210;BME280;9738;51.654;14.238;2023-02-19T14:14:42;100885.44;;;7.29;59.93
19210;BME280;9738;51.654;14.238;2023-02-19T14:25:32;100888.00;;;7.42;62.05
19210;BME280;9738;51.654;14.238;2023-02-19T14:28:15;100898.38;;;7.34;61.08
19210;BME280;9738;51.654;14.238;2023-02-19T14:30:52;100906.13;;;7.26;61.78
19210;BME280;9738;51.654;14.238;2023-02-19T14:33:24;100901.25;;;7.09;62.29
19210;BME280;9738;51.654;14.238;2023-02-19T14:35:54;100906.00;;;6.92;62.83
19210;BME280;9738;51.654;14.238;2023-02-19T14:38:26;100910.81;;;6.76;63.85